sensor_id;sensor_type;location;lat;lon;timestamp;P1;durP1;ratioP1;P2;durP2;ratioP2
13230;SDS011;6681;53.254;10.398;2023-04-15T00:00:37;16.73;;;11.73;;
13230;SDS011;6681;53.254;10.398;2023-04-15T00:03:03;12.70;;;8.67;;
13230;SDS011;6681;53.254;10.398;2023-04-15T00:05:31;12.10;;;8.57;;
13230;SDS011;6681;53.254;10.398;2023-04-15T00:07:57;11.00;;;9.00;;
13230;SDS011;6681;53.254;10.398;2023-04-15T00:10:23;10.87;;;8.13;;
13230;SDS011;6681;53.254;10.398;2023-04-15T00:12:49;9.20;;;7.33;;
13230;SDS011;6681;53.254;10.398;2023-04-15T00:15:16;8.43;;;7.33;;
13230;SDS011;6681;53.254;10.398;2023-04-15T00:17:42;9.90;;;6.70;;
13230;SDS011;6681;53.254;10.398;2023-04-15T00:20:08;6.77;;;5.40;;
13230;SDS011;6681;53.254;10.398;2023-04-15T00:22:34;8.63;;;5.90;;
13230;SDS011;6681;53.254;10.398;2023-04-15T00:25:00;7.83;;;5.77;;
13230;SDS011;6681;53.254;10.398;2023-04-15T00:27:29;5.23;;;4.60;;
13230;SDS011;6681;53.254;10.398;2023-04-15T00:29:55;6.23;;;5.53;;
13230;SDS011;6681;53.254;10.398;2023-04-15T00:32:21;6.10;;;4.87;;
13230;SDS011;6681;53.254;10.398;2023-04-15T00:34:47;6.43;;;4.43;;
13230;SDS011;6681;53.254;10.398;2023-04-15T00:37:13;5.43;;;3.83;;
13230;SDS011;6681;53.254;10.398;2023-04-15T00:39:39;4.20;;;3.70;;
13230;SDS011;6681;53.254;10.398;2023-04-15T00:42:04;5.10;;;4.63;;
13230;SDS011;6681;53.254;10.398;2023-04-15T00:44:30;7.07;;;5.97;;
13230;SDS011;6681;53.254;10.398;2023-04-15T00:46:57;6.50;;;4.70;;
13230;SDS011;6681;53.254;10.398;2023-04-15T00:49:24;5.47;;;4.87;;
13230;SDS011;6681;53.254;10.398;2023-04-15T00:51:51;5.20;;;4.10;;
13230;SDS011;6681;53.254;10.398;2023-04-15T00:54:16;4.70;;;4.00;;
13230;SDS011;6681;53.254;10.398;2023-04-15T00:56:42;6.37;;;4.53;;
13230;SDS011;6681;53.254;10.398;2023-04-15T00:59:08;6.67;;;5.53;;
13230;SDS011;6681;53.254;10.398;2023-04-15T01:01:34;6.00;;;5.03;;
13230;SDS011;6681;53.254;10.398;2023-04-15T01:04:00;6.13;;;4.60;;
13230;SDS011;6681;53.254;10.398;2023-04-15T01:06:30;5.70;;;4.50;;
13230;SDS011;6681;53.254;10.398;2023-04-15T01:08:56;4.93;;;3.83;;
13230;SDS011;6681;53.254;10.398;2023-04-15T01:11:22;5.70;;;3.90;;
13230;SDS011;6681;53.254;10.398;2023-04-15T01:13:50;4.87;;;4.20;;
13230;SDS011;6681;53.254;10.398;2023-04-15T01:16:17;5.60;;;4.63;;
13230;SDS011;6681;53.254;10.398;2023-04-15T01:18:43;6.37;;;5.23;;
13230;SDS011;6681;53.254;10.398;2023-04-15T01:21:09;6.97;;;6.03;;
13230;SDS011;6681;53.254;10.398;2023-04-15T01:23:36;4.87;;;4.17;;
13230;SDS011;6681;53.254;10.398;2023-04-15T01:26:02;5.17;;;4.67;;
13230;SDS011;6681;53.254;10.398;2023-04-15T01:28:28;5.87;;;5.27;;
13230;SDS011;6681;53.254;10.398;2023-04-15T01:31:08;5.67;;;4.97;;
13230;SDS011;6681;53.254;10.398;2023-04-15T01:33:35;5.40;;;4.90;;
13230;SDS011;6681;53.254;10.398;2023-04-15T01:36:02;7.00;;;5.90;;
13230;SDS011;6681;53.254;10.398;2023-04-15T01:38:29;5.23;;;4.73;;
13230;SDS011;6681;53.254;10.398;2023-04-15T01:40:56;5.40;;;4.17;;
13230;SDS011;6681;53.254;10.398;2023-04-15T01:43:22;7.40;;;4.13;;
13230;SDS011;6681;53.254;10.398;2023-04-15T01:45:47;5.17;;;4.27;;
13230;SDS011;6681;53.254;10.398;2023-04-15T01:48:13;5.23;;;4.63;;
13230;SDS011;6681;53.254;10.398;2023-04-15T01:50:39;6.00;;;4.10;;
13230;SDS011;6681;53.254;10.398;2023-04-15T01:53:04;6.80;;;5.70;;
13230;SDS011;6681;53.254;10.398;2023-04-15T01:55:30;6.70;;;4.70;;
13230;SDS011;6681;53.254;10.398;2023-04-15T01:57:56;6.23;;;4.47;;
13230;SDS011;6681;53.254;10.398;2023-04-15T02:00:22;5.07;;;4.57;;
13230;SDS011;6681;53.254;10.398;2023-04-15T02:02:48;5.47;;;4.80;;
13230;SDS011;6681;53.254;10.398;2023-04-15T02:05:14;6.43;;;4.77;;
13230;SDS011;6681;53.254;10.398;2023-04-15T02:07:40;6.07;;;5.10;;
13230;SDS011;6681;53.254;10.398;2023-04-15T02:10:07;5.03;;;4.40;;
13230;SDS011;6681;53.254;10.398;2023-04-15T02:12:37;4.50;;;4.10;;
13230;SDS011;6681;53.254;10.398;2023-04-15T02:15:03;8.07;;;5.63;;
13230;SDS011;6681;53.254;10.398;2023-04-15T02:17:32;5.63;;;5.10;;
13230;SDS011;6681;53.254;10.398;2023-04-15T02:19:59;5.13;;;4.50;;
13230;SDS011;6681;53.254;10.398;2023-04-15T02:22:24;7.97;;;5.73;;
13230;SDS011;6681;53.254;10.398;2023-04-15T02:24:50;5.47;;;4.53;;
13230;SDS011;6681;53.254;10.398;2023-04-15T02:27:16;7.77;;;6.17;;
13230;SDS011;6681;53.254;10.398;2023-04-15T02:29:45;6.47;;;5.53;;
13230;SDS011;6681;53.254;10.398;2023-04-15T02:32:11;7.37;;;5.33;;
13230;SDS011;6681;53.254;10.398;2023-04-15T02:34:38;7.20;;;6.50;;
13230;SDS011;6681;53.254;10.398;2023-04-15T02:37:06;7.07;;;5.83;;
13230;SDS011;6681;53.254;10.398;2023-04-15T02:39:32;6.67;;;5.97;;
13230;SDS011;6681;53.254;10.398;2023-04-15T02:41:58;7.20;;;5.73;;
13230;SDS011;6681;53.254;10.398;2023-04-15T02:44:25;7.97;;;6.27;;
13230;SDS011;6681;53.254;10.398;2023-04-15T02:46:51;7.83;;;5.47;;
13230;SDS011;6681;53.254;10.398;2023-04-15T02:49:18;6.97;;;6.27;;
13230;SDS011;6681;53.254;10.398;2023-04-15T02:51:47;7.47;;;5.43;;
13230;SDS011;6681;53.254;10.398;2023-04-15T02:54:19;9.77;;;6.70;;
13230;SDS011;6681;53.254;10.398;2023-04-15T02:56:47;6.77;;;6.03;;
13230;SDS011;6681;53.254;10.398;2023-04-15T02:59:13;7.03;;;6.33;;
13230;SDS011;6681;53.254;10.398;2023-04-15T03:01:38;8.27;;;7.33;;
13230;SDS011;6681;53.254;10.398;2023-04-15T03:04:04;7.87;;;5.50;;
13230;SDS011;6681;53.254;10.398;2023-04-15T03:06:31;7.90;;;6.10;;
13230;SDS011;6681;53.254;10.398;2023-04-15T03:08:57;9.73;;;6.53;;
13230;SDS011;6681;53.254;10.398;2023-04-15T03:11:24;7.60;;;5.97;;
13230;SDS011;6681;53.254;10.398;2023-04-15T03:13:51;8.90;;;6.77;;
13230;SDS011;6681;53.254;10.398;2023-04-15T03:16:16;8.13;;;6.80;;
13230;SDS011;6681;53.254;10.398;2023-04-15T03:18:42;10.10;;;7.00;;
13230;SDS011;6681;53.254;10.398;2023-04-15T03:21:08;7.07;;;5.67;;
13230;SDS011;6681;53.254;10.398;2023-04-15T03:23:33;8.37;;;6.70;;
13230;SDS011;6681;53.254;10.398;2023-04-15T03:26:03;9.67;;;7.67;;
13230;SDS011;6681;53.254;10.398;2023-04-15T03:28:29;10.13;;;7.70;;
13230;SDS011;6681;53.254;10.398;2023-04-15T03:30:56;11.50;;;8.63;;
13230;SDS011;6681;53.254;10.398;2023-04-15T03:33:22;12.73;;;7.80;;
13230;SDS011;6681;53.254;10.398;2023-04-15T03:35:49;11.47;;;7.77;;
13230;SDS011;6681;53.254;10.398;2023-04-15T03:38:15;8.67;;;7.57;;
13230;SDS011;6681;53.254;10.398;2023-04-15T03:40:42;14.73;;;9.93;;
13230;SDS011;6681;53.254;10.398;2023-04-15T03:43:07;11.30;;;8.73;;
13230;SDS011;6681;53.254;10.398;2023-04-15T03:45:33;9.70;;;7.80;;
13230;SDS011;6681;53.254;10.398;2023-04-15T03:47:59;14.23;;;10.33;;
13230;SDS011;6681;53.254;10.398;2023-04-15T03:50:24;11.60;;;8.07;;
13230;SDS011;6681;53.254;10.398;2023-04-15T03:52:50;14.47;;;10.97;;
13230;SDS011;6681;53.254;10.398;2023-04-15T03:55:16;13.37;;;9.07;;
13230;SDS011;6681;53.254;10.398;2023-04-15T03:57:41;13.90;;;9.70;;
13230;SDS011;6681;53.254;10.398;2023-04-15T04:00:07;17.20;;;10.07;;
13230;SDS011;6681;53.254;10.398;2023-04-15T04:02:36;16.13;;;10.43;;
13230;SDS011;6681;53.254;10.398;2023-04-15T04:05:02;18.57;;;13.20;;
13230;SDS011;6681;53.254;10.398;2023-04-15T04:07:28;13.93;;;10.53;;
13230;SDS011;6681;53.254;10.398;2023-04-15T04:09:55;14.63;;;10.97;;
13230;SDS011;6681;53.254;10.398;2023-04-15T04:12:21;16.27;;;11.37;;
13230;SDS011;6681;53.254;10.398;2023-04-15T04:14:47;19.83;;;11.50;;
13230;SDS011;6681;53.254;10.398;2023-04-15T04:17:16;19.77;;;12.30;;
13230;SDS011;6681;53.254;10.398;2023-04-15T04:19:42;18.50;;;11.67;;
13230;SDS011;6681;53.254;10.398;2023-04-15T04:22:07;15.00;;;11.73;;
13230;SDS011;6681;53.254;10.398;2023-04-15T04:24:33;17.53;;;11.77;;
13230;SDS011;6681;53.254;10.398;2023-04-15T04:26:58;18.27;;;11.67;;
13230;SDS011;6681;53.254;10.398;2023-04-15T04:29:24;17.73;;;11.93;;
13230;SDS011;6681;53.254;10.398;2023-04-15T04:31:51;16.13;;;11.57;;
13230;SDS011;6681;53.254;10.398;2023-04-15T04:34:22;18.00;;;12.60;;
13230;SDS011;6681;53.254;10.398;2023-04-15T04:36:48;20.93;;;12.87;;
13230;SDS011;6681;53.254;10.398;2023-04-15T04:39:13;14.00;;;10.73;;
13230;SDS011;6681;53.254;10.398;2023-04-15T04:41:39;17.20;;;11.27;;
13230;SDS011;6681;53.254;10.398;2023-04-15T04:44:05;19.27;;;12.63;;
13230;SDS011;6681;53.254;10.398;2023-04-15T04:46:31;21.63;;;12.37;;
13230;SDS011;6681;53.254;10.398;2023-04-15T04:48:56;17.03;;;12.37;;
13230;SDS011;6681;53.254;10.398;2023-04-15T04:51:22;16.27;;;10.97;;
13230;SDS011;6681;53.254;10.398;2023-04-15T04:53:55;17.83;;;11.33;;
13230;SDS011;6681;53.254;10.398;2023-04-15T04:56:21;17.50;;;11.57;;
13230;SDS011;6681;53.254;10.398;2023-04-15T04:58:46;18.03;;;10.97;;
13230;SDS011;6681;53.254;10.398;2023-04-15T05:01:12;22.43;;;14.00;;
13230;SDS011;6681;53.254;10.398;2023-04-15T05:03:38;18.87;;;11.30;;
13230;SDS011;6681;53.254;10.398;2023-04-15T05:06:03;18.43;;;11.57;;
13230;SDS011;6681;53.254;10.398;2023-04-15T05:08:31;15.50;;;10.53;;
13230;SDS011;6681;53.254;10.398;2023-04-15T05:10:57;15.93;;;11.93;;
13230;SDS011;6681;53.254;10.398;2023-04-15T05:13:22;20.47;;;12.87;;
13230;SDS011;6681;53.254;10.398;2023-04-15T05:15:48;17.97;;;11.90;;
13230;SDS011;6681;53.254;10.398;2023-04-15T05:18:14;26.77;;;15.63;;
13230;SDS011;6681;53.254;10.398;2023-04-15T05:20:39;21.77;;;14.57;;
13230;SDS011;6681;53.254;10.398;2023-04-15T05:23:05;19.50;;;12.73;;
13230;SDS011;6681;53.254;10.398;2023-04-15T05:25:31;21.97;;;13.47;;
13230;SDS011;6681;53.254;10.398;2023-04-15T05:27:56;21.43;;;12.60;;
13230;SDS011;6681;53.254;10.398;2023-04-15T05:30:22;24.87;;;14.33;;
13230;SDS011;6681;53.254;10.398;2023-04-15T05:32:47;21.07;;;14.43;;
13230;SDS011;6681;53.254;10.398;2023-04-15T05:35:13;21.07;;;14.17;;
13230;SDS011;6681;53.254;10.398;2023-04-15T05:37:39;19.90;;;12.27;;
13230;SDS011;6681;53.254;10.398;2023-04-15T05:40:05;20.73;;;14.13;;
13230;SDS011;6681;53.254;10.398;2023-04-15T05:42:31;21.73;;;13.23;;
13230;SDS011;6681;53.254;10.398;2023-04-15T05:44:56;19.70;;;12.87;;
13230;SDS011;6681;53.254;10.398;2023-04-15T05:47:22;25.70;;;14.73;;
13230;SDS011;6681;53.254;10.398;2023-04-15T05:49:47;27.47;;;15.87;;
13230;SDS011;6681;53.254;10.398;2023-04-15T05:52:13;27.90;;;14.07;;
13230;SDS011;6681;53.254;10.398;2023-04-15T05:54:39;23.83;;;15.30;;
13230;SDS011;6681;53.254;10.398;2023-04-15T05:57:04;29.03;;;17.30;;
13230;SDS011;6681;53.254;10.398;2023-04-15T05:59:30;27.10;;;16.60;;
13230;SDS011;6681;53.254;10.398;2023-04-15T06:01:56;32.70;;;17.20;;
13230;SDS011;6681;53.254;10.398;2023-04-15T06:04:22;30.07;;;17.90;;
13230;SDS011;6681;53.254;10.398;2023-04-15T06:06:48;28.90;;;17.53;;
13230;SDS011;6681;53.254;10.398;2023-04-15T06:09:13;32.63;;;19.13;;
13230;SDS011;6681;53.254;10.398;2023-04-15T06:11:39;30.90;;;18.57;;
13230;SDS011;6681;53.254;10.398;2023-04-15T06:14:05;32.13;;;18.27;;
13230;SDS011;6681;53.254;10.398;2023-04-15T06:16:31;35.93;;;19.80;;
13230;SDS011;6681;53.254;10.398;2023-04-15T06:18:56;36.60;;;20.27;;
13230;SDS011;6681;53.254;10.398;2023-04-15T06:21:22;33.63;;;19.70;;
13230;SDS011;6681;53.254;10.398;2023-04-15T06:23:48;36.07;;;18.33;;
13230;SDS011;6681;53.254;10.398;2023-04-15T06:26:13;32.03;;;18.57;;
13230;SDS011;6681;53.254;10.398;2023-04-15T06:28:39;36.17;;;22.07;;
13230;SDS011;6681;53.254;10.398;2023-04-15T06:31:05;39.33;;;21.67;;
13230;SDS011;6681;53.254;10.398;2023-04-15T06:33:31;35.63;;;21.13;;
13230;SDS011;6681;53.254;10.398;2023-04-15T06:35:56;42.83;;;24.10;;
13230;SDS011;6681;53.254;10.398;2023-04-15T06:38:22;39.40;;;24.37;;
13230;SDS011;6681;53.254;10.398;2023-04-15T06:40:47;42.87;;;25.50;;
13230;SDS011;6681;53.254;10.398;2023-04-15T06:43:13;38.17;;;24.60;;
13230;SDS011;6681;53.254;10.398;2023-04-15T06:45:39;43.23;;;26.07;;
13230;SDS011;6681;53.254;10.398;2023-04-15T06:48:05;42.57;;;23.37;;
13230;SDS011;6681;53.254;10.398;2023-04-15T06:50:30;44.73;;;26.23;;
13230;SDS011;6681;53.254;10.398;2023-04-15T06:52:56;39.73;;;25.73;;
13230;SDS011;6681;53.254;10.398;2023-04-15T06:55:22;40.67;;;25.53;;
13230;SDS011;6681;53.254;10.398;2023-04-15T06:57:48;45.13;;;25.40;;
13230;SDS011;6681;53.254;10.398;2023-04-15T07:00:13;39.43;;;26.30;;
13230;SDS011;6681;53.254;10.398;2023-04-15T07:02:39;42.00;;;27.00;;
13230;SDS011;6681;53.254;10.398;2023-04-15T07:05:05;40.40;;;25.97;;
13230;SDS011;6681;53.254;10.398;2023-04-15T07:07:31;49.83;;;29.07;;
13230;SDS011;6681;53.254;10.398;2023-04-15T07:09:57;37.50;;;25.60;;
13230;SDS011;6681;53.254;10.398;2023-04-15T07:12:22;43.17;;;26.53;;
13230;SDS011;6681;53.254;10.398;2023-04-15T07:14:48;43.23;;;25.90;;
13230;SDS011;6681;53.254;10.398;2023-04-15T07:17:14;41.17;;;26.43;;
13230;SDS011;6681;53.254;10.398;2023-04-15T07:19:39;48.23;;;28.33;;
13230;SDS011;6681;53.254;10.398;2023-04-15T07:22:05;41.87;;;29.27;;
13230;SDS011;6681;53.254;10.398;2023-04-15T07:24:31;44.37;;;28.53;;
13230;SDS011;6681;53.254;10.398;2023-04-15T07:26:57;46.20;;;28.83;;
13230;SDS011;6681;53.254;10.398;2023-04-15T07:29:23;49.97;;;28.90;;
13230;SDS011;6681;53.254;10.398;2023-04-15T07:31:49;49.60;;;28.90;;
13230;SDS011;6681;53.254;10.398;2023-04-15T07:34:15;54.07;;;30.97;;
13230;SDS011;6681;53.254;10.398;2023-04-15T07:36:41;48.53;;;28.47;;
13230;SDS011;6681;53.254;10.398;2023-04-15T07:39:07;46.07;;;29.93;;
13230;SDS011;6681;53.254;10.398;2023-04-15T07:41:33;53.63;;;30.80;;
13230;SDS011;6681;53.254;10.398;2023-04-15T07:43:58;48.90;;;28.93;;
13230;SDS011;6681;53.254;10.398;2023-04-15T07:46:24;51.43;;;28.30;;
13230;SDS011;6681;53.254;10.398;2023-04-15T07:48:51;50.60;;;28.27;;
13230;SDS011;6681;53.254;10.398;2023-04-15T07:51:17;45.27;;;27.30;;
13230;SDS011;6681;53.254;10.398;2023-04-15T07:53:45;56.73;;;28.97;;
13230;SDS011;6681;53.254;10.398;2023-04-15T07:56:11;53.73;;;29.77;;
13230;SDS011;6681;53.254;10.398;2023-04-15T07:58:37;59.53;;;33.90;;
13230;SDS011;6681;53.254;10.398;2023-04-15T08:01:03;51.23;;;32.10;;
13230;SDS011;6681;53.254;10.398;2023-04-15T08:03:29;53.00;;;29.73;;
13230;SDS011;6681;53.254;10.398;2023-04-15T08:05:55;53.40;;;30.23;;
13230;SDS011;6681;53.254;10.398;2023-04-15T08:08:21;53.23;;;31.17;;
13230;SDS011;6681;53.254;10.398;2023-04-15T08:10:47;61.57;;;35.87;;
13230;SDS011;6681;53.254;10.398;2023-04-15T08:13:13;54.37;;;31.07;;
13230;SDS011;6681;53.254;10.398;2023-04-15T08:15:39;57.53;;;33.57;;
13230;SDS011;6681;53.254;10.398;2023-04-15T08:18:05;56.73;;;33.63;;
13230;SDS011;6681;53.254;10.398;2023-04-15T08:20:31;55.67;;;31.23;;
13230;SDS011;6681;53.254;10.398;2023-04-15T08:22:57;60.67;;;33.77;;
13230;SDS011;6681;53.254;10.398;2023-04-15T08:25:22;55.70;;;32.40;;
13230;SDS011;6681;53.254;10.398;2023-04-15T08:27:48;50.40;;;30.17;;
13230;SDS011;6681;53.254;10.398;2023-04-15T08:30:14;59.70;;;31.70;;
13230;SDS011;6681;53.254;10.398;2023-04-15T08:32:41;61.47;;;33.30;;
13230;SDS011;6681;53.254;10.398;2023-04-15T08:35:10;55.70;;;33.57;;
13230;SDS011;6681;53.254;10.398;2023-04-15T08:37:35;56.10;;;32.90;;
13230;SDS011;6681;53.254;10.398;2023-04-15T08:40:01;54.70;;;32.00;;
13230;SDS011;6681;53.254;10.398;2023-04-15T08:42:29;64.03;;;31.67;;
13230;SDS011;6681;53.254;10.398;2023-04-15T08:44:58;57.80;;;32.67;;
13230;SDS011;6681;53.254;10.398;2023-04-15T08:47:25;56.03;;;30.73;;
13230;SDS011;6681;53.254;10.398;2023-04-15T08:49:55;52.87;;;31.93;;
13230;SDS011;6681;53.254;10.398;2023-04-15T08:52:23;60.60;;;32.30;;
13230;SDS011;6681;53.254;10.398;2023-04-15T08:54:50;56.43;;;31.97;;
13230;SDS011;6681;53.254;10.398;2023-04-15T08:57:17;61.43;;;34.77;;
13230;SDS011;6681;53.254;10.398;2023-04-15T08:59:43;50.17;;;30.30;;
13230;SDS011;6681;53.254;10.398;2023-04-15T09:02:10;55.73;;;34.03;;
13230;SDS011;6681;53.254;10.398;2023-04-15T09:04:36;50.77;;;32.30;;
13230;SDS011;6681;53.254;10.398;2023-04-15T09:07:01;55.37;;;33.20;;
13230;SDS011;6681;53.254;10.398;2023-04-15T09:09:27;48.93;;;30.60;;
13230;SDS011;6681;53.254;10.398;2023-04-15T09:11:53;59.53;;;33.53;;
13230;SDS011;6681;53.254;10.398;2023-04-15T09:14:18;50.33;;;29.83;;
13230;SDS011;6681;53.254;10.398;2023-04-15T09:17:00;50.13;;;28.67;;
13230;SDS011;6681;53.254;10.398;2023-04-15T09:19:28;52.50;;;32.37;;
13230;SDS011;6681;53.254;10.398;2023-04-15T09:21:55;56.97;;;30.97;;
13230;SDS011;6681;53.254;10.398;2023-04-15T09:24:23;55.13;;;31.90;;
13230;SDS011;6681;53.254;10.398;2023-04-15T09:26:53;53.13;;;30.13;;
13230;SDS011;6681;53.254;10.398;2023-04-15T09:29:23;46.67;;;30.57;;
13230;SDS011;6681;53.254;10.398;2023-04-15T09:31:52;54.53;;;31.93;;
13230;SDS011;6681;53.254;10.398;2023-04-15T09:34:18;50.07;;;30.43;;
13230;SDS011;6681;53.254;10.398;2023-04-15T09:39:16;56.17;;;31.20;;
13230;SDS011;6681;53.254;10.398;2023-04-15T09:41:42;54.60;;;32.00;;
13230;SDS011;6681;53.254;10.398;2023-04-15T09:44:24;57.03;;;31.93;;
13230;SDS011;6681;53.254;10.398;2023-04-15T09:46:51;52.20;;;33.00;;
13230;SDS011;6681;53.254;10.398;2023-04-15T09:49:16;51.87;;;30.90;;
13230;SDS011;6681;53.254;10.398;2023-04-15T09:51:42;51.97;;;31.83;;
13230;SDS011;6681;53.254;10.398;2023-04-15T09:54:08;53.20;;;31.73;;
13230;SDS011;6681;53.254;10.398;2023-04-15T09:56:38;52.33;;;29.70;;
13230;SDS011;6681;53.254;10.398;2023-04-15T09:59:07;49.73;;;29.03;;
13230;SDS011;6681;53.254;10.398;2023-04-15T10:01:33;61.30;;;33.73;;
13230;SDS011;6681;53.254;10.398;2023-04-15T10:04:02;46.47;;;30.60;;
13230;SDS011;6681;53.254;10.398;2023-04-15T10:06:28;51.70;;;32.57;;
13230;SDS011;6681;53.254;10.398;2023-04-15T10:08:55;55.00;;;33.47;;
13230;SDS011;6681;53.254;10.398;2023-04-15T10:11:22;53.07;;;28.93;;
13230;SDS011;6681;53.254;10.398;2023-04-15T10:13:49;48.27;;;29.43;;
13230;SDS011;6681;53.254;10.398;2023-04-15T10:16:17;40.33;;;28.03;;
13230;SDS011;6681;53.254;10.398;2023-04-15T10:18:46;42.40;;;26.97;;
13230;SDS011;6681;53.254;10.398;2023-04-15T10:21:15;48.30;;;28.53;;
13230;SDS011;6681;53.254;10.398;2023-04-15T10:23:45;34.17;;;25.70;;
13230;SDS011;6681;53.254;10.398;2023-04-15T10:26:11;39.27;;;25.23;;
13230;SDS011;6681;53.254;10.398;2023-04-15T10:28:44;41.50;;;26.60;;
13230;SDS011;6681;53.254;10.398;2023-04-15T10:31:12;44.77;;;28.07;;
13230;SDS011;6681;53.254;10.398;2023-04-15T10:33:41;37.10;;;26.00;;
13230;SDS011;6681;53.254;10.398;2023-04-15T10:36:08;45.77;;;28.57;;
13230;SDS011;6681;53.254;10.398;2023-04-15T10:38:35;43.53;;;27.20;;
13230;SDS011;6681;53.254;10.398;2023-04-15T10:41:15;45.43;;;29.47;;
13230;SDS011;6681;53.254;10.398;2023-04-15T10:43:49;37.63;;;24.27;;
13230;SDS011;6681;53.254;10.398;2023-04-15T10:46:20;35.07;;;25.00;;
13230;SDS011;6681;53.254;10.398;2023-04-15T10:49:08;41.87;;;26.43;;
13230;SDS011;6681;53.254;10.398;2023-04-15T10:51:36;37.07;;;25.60;;
13230;SDS011;6681;53.254;10.398;2023-04-15T10:54:16;38.77;;;25.83;;
13230;SDS011;6681;53.254;10.398;2023-04-15T11:00:16;37.40;;;24.03;;
13230;SDS011;6681;53.254;10.398;2023-04-15T11:05:16;28.53;;;21.30;;
13230;SDS011;6681;53.254;10.398;2023-04-15T11:12:50;27.73;;;18.63;;
13230;SDS011;6681;53.254;10.398;2023-04-15T11:15:31;28.23;;;18.33;;
13230;SDS011;6681;53.254;10.398;2023-04-15T11:18:19;31.27;;;21.10;;
13230;SDS011;6681;53.254;10.398;2023-04-15T11:20:50;22.77;;;17.67;;
13230;SDS011;6681;53.254;10.398;2023-04-15T11:23:27;27.67;;;20.60;;
13230;SDS011;6681;53.254;10.398;2023-04-15T11:26:01;29.80;;;20.27;;
13230;SDS011;6681;53.254;10.398;2023-04-15T11:28:30;27.97;;;21.13;;
13230;SDS011;6681;53.254;10.398;2023-04-15T11:30:56;26.17;;;20.07;;
13230;SDS011;6681;53.254;10.398;2023-04-15T11:33:23;27.03;;;20.70;;
13230;SDS011;6681;53.254;10.398;2023-04-15T11:35:49;24.37;;;18.00;;
13230;SDS011;6681;53.254;10.398;2023-04-15T11:38:19;26.93;;;20.63;;
13230;SDS011;6681;53.254;10.398;2023-04-15T11:40:45;26.10;;;18.73;;
13230;SDS011;6681;53.254;10.398;2023-04-15T11:43:15;26.17;;;20.23;;
13230;SDS011;6681;53.254;10.398;2023-04-15T11:45:51;25.80;;;19.03;;
13230;SDS011;6681;53.254;10.398;2023-04-15T11:48:21;27.47;;;20.50;;
13230;SDS011;6681;53.254;10.398;2023-04-15T11:50:55;26.40;;;18.30;;
13230;SDS011;6681;53.254;10.398;2023-04-15T11:53:46;28.87;;;20.17;;
13230;SDS011;6681;53.254;10.398;2023-04-15T11:56:19;24.57;;;19.13;;
13230;SDS011;6681;53.254;10.398;2023-04-15T11:58:46;24.13;;;19.37;;
13230;SDS011;6681;53.254;10.398;2023-04-15T12:01:14;25.00;;;19.40;;
13230;SDS011;6681;53.254;10.398;2023-04-15T12:13:52;25.37;;;19.07;;
13230;SDS011;6681;53.254;10.398;2023-04-15T12:16:22;22.53;;;17.03;;
13230;SDS011;6681;53.254;10.398;2023-04-15T12:18:52;25.30;;;19.73;;
13230;SDS011;6681;53.254;10.398;2023-04-15T12:21:23;25.30;;;18.63;;
13230;SDS011;6681;53.254;10.398;2023-04-15T12:23:52;25.37;;;18.93;;
13230;SDS011;6681;53.254;10.398;2023-04-15T12:26:25;26.53;;;18.07;;
13230;SDS011;6681;53.254;10.398;2023-04-15T12:28:53;27.07;;;18.13;;
13230;SDS011;6681;53.254;10.398;2023-04-15T12:31:20;26.00;;;20.37;;
13230;SDS011;6681;53.254;10.398;2023-04-15T12:33:47;25.47;;;18.57;;
13230;SDS011;6681;53.254;10.398;2023-04-15T12:36:13;22.83;;;16.27;;
13230;SDS011;6681;53.254;10.398;2023-04-15T12:38:39;23.20;;;16.83;;
13230;SDS011;6681;53.254;10.398;2023-04-15T12:41:05;21.27;;;17.50;;
13230;SDS011;6681;53.254;10.398;2023-04-15T12:43:30;20.80;;;16.77;;
13230;SDS011;6681;53.254;10.398;2023-04-15T12:45:56;18.63;;;16.43;;
13230;SDS011;6681;53.254;10.398;2023-04-15T12:48:22;18.27;;;15.77;;
13230;SDS011;6681;53.254;10.398;2023-04-15T12:50:47;17.27;;;14.90;;
13230;SDS011;6681;53.254;10.398;2023-04-15T12:53:13;20.67;;;16.07;;
13230;SDS011;6681;53.254;10.398;2023-04-15T12:55:39;19.13;;;15.60;;
13230;SDS011;6681;53.254;10.398;2023-04-15T12:58:04;20.83;;;15.93;;
13230;SDS011;6681;53.254;10.398;2023-04-15T13:00:32;23.27;;;16.33;;
13230;SDS011;6681;53.254;10.398;2023-04-15T13:02:58;17.60;;;15.33;;
13230;SDS011;6681;53.254;10.398;2023-04-15T13:05:24;18.87;;;15.40;;
13230;SDS011;6681;53.254;10.398;2023-04-15T13:07:50;19.07;;;15.13;;
13230;SDS011;6681;53.254;10.398;2023-04-15T13:10:15;19.80;;;14.77;;
13230;SDS011;6681;53.254;10.398;2023-04-15T13:12:41;21.80;;;15.33;;
13230;SDS011;6681;53.254;10.398;2023-04-15T13:15:07;15.60;;;13.93;;
13230;SDS011;6681;53.254;10.398;2023-04-15T13:17:36;16.80;;;13.97;;
13230;SDS011;6681;53.254;10.398;2023-04-15T13:20:02;20.47;;;17.00;;
13230;SDS011;6681;53.254;10.398;2023-04-15T13:22:28;16.17;;;13.27;;
13230;SDS011;6681;53.254;10.398;2023-04-15T13:24:54;15.43;;;13.27;;
13230;SDS011;6681;53.254;10.398;2023-04-15T13:27:20;16.27;;;13.43;;
13230;SDS011;6681;53.254;10.398;2023-04-15T13:29:46;19.90;;;13.97;;
13230;SDS011;6681;53.254;10.398;2023-04-15T13:32:11;14.30;;;12.27;;
13230;SDS011;6681;53.254;10.398;2023-04-15T13:34:38;18.47;;;13.70;;
13230;SDS011;6681;53.254;10.398;2023-04-15T13:37:07;19.20;;;13.57;;
13230;SDS011;6681;53.254;10.398;2023-04-15T13:39:33;16.10;;;13.73;;
13230;SDS011;6681;53.254;10.398;2023-04-15T13:41:59;17.57;;;14.17;;
13230;SDS011;6681;53.254;10.398;2023-04-15T13:44:25;18.73;;;14.27;;
13230;SDS011;6681;53.254;10.398;2023-04-15T13:46:51;15.57;;;13.40;;
13230;SDS011;6681;53.254;10.398;2023-04-15T13:49:16;19.23;;;15.10;;
13230;SDS011;6681;53.254;10.398;2023-04-15T13:51:42;15.40;;;13.73;;
13230;SDS011;6681;53.254;10.398;2023-04-15T13:54:08;17.13;;;12.77;;
13230;SDS011;6681;53.254;10.398;2023-04-15T13:56:33;17.67;;;12.77;;
13230;SDS011;6681;53.254;10.398;2023-04-15T13:58:59;17.67;;;12.27;;
13230;SDS011;6681;53.254;10.398;2023-04-15T14:01:27;17.50;;;12.47;;
13230;SDS011;6681;53.254;10.398;2023-04-15T14:03:53;14.17;;;10.90;;
13230;SDS011;6681;53.254;10.398;2023-04-15T14:06:19;16.40;;;12.53;;
13230;SDS011;6681;53.254;10.398;2023-04-15T14:08:44;21.57;;;13.73;;
13230;SDS011;6681;53.254;10.398;2023-04-15T14:11:10;17.50;;;12.97;;
13230;SDS011;6681;53.254;10.398;2023-04-15T14:13:36;18.30;;;12.33;;
13230;SDS011;6681;53.254;10.398;2023-04-15T14:16:01;18.47;;;12.57;;
13230;SDS011;6681;53.254;10.398;2023-04-15T14:18:27;14.13;;;12.23;;
13230;SDS011;6681;53.254;10.398;2023-04-15T14:20:54;14.33;;;12.57;;
13230;SDS011;6681;53.254;10.398;2023-04-15T14:23:21;15.00;;;12.00;;
13230;SDS011;6681;53.254;10.398;2023-04-15T14:25:47;15.90;;;12.50;;
13230;SDS011;6681;53.254;10.398;2023-04-15T14:28:13;13.87;;;11.10;;
13230;SDS011;6681;53.254;10.398;2023-04-15T14:30:39;19.63;;;11.40;;
13230;SDS011;6681;53.254;10.398;2023-04-15T14:33:10;16.00;;;11.33;;
13230;SDS011;6681;53.254;10.398;2023-04-15T14:35:36;11.00;;;9.90;;
13230;SDS011;6681;53.254;10.398;2023-04-15T14:38:01;13.60;;;10.17;;
13230;SDS011;6681;53.254;10.398;2023-04-15T14:40:27;14.23;;;11.50;;
13230;SDS011;6681;53.254;10.398;2023-04-15T14:42:53;26.07;;;11.07;;
13230;SDS011;6681;53.254;10.398;2023-04-15T14:45:19;14.97;;;11.50;;
13230;SDS011;6681;53.254;10.398;2023-04-15T14:47:45;13.47;;;11.10;;
13230;SDS011;6681;53.254;10.398;2023-04-15T14:50:11;12.37;;;11.10;;